Time;durP1;ratioP1;P1;durP2;ratioP2;P2;SDS_P1;SDS_P2;PMS_P1;PMS_P2;Temp;Humidity;BMP_temperature;BMP_pressure;BME280_temperature;BME280_humidity;BME280_pressure;Samples;Min_cycle;Max_cycle;Signal;HPM_P1;HPM_P2
2022/06/19 00:00:10;;;;;;;0.82;0.30;;;20.20;95.10;;;;;;5031289;28;20356;-76
2022/06/19 00:02:40;;;;;;;2.08;0.32;;;20.70;94.20;;;;;;5049112;28;20060;-75
2022/06/19 00:05:08;;;;;;;0.98;0.40;;;21.30;93.20;;;;;;5046065;28;20130;-76
2022/06/19 00:07:36;;;;;;;1.35;0.40;;;21.70;92.90;;;;;;5043492;28;20052;-73
2022/06/19 00:10:06;;;;;;;1.13;0.20;;;22.10;92.50;;;;;;5046603;28;20044;-76
2022/06/19 00:12:33;;;;;;;2.95;0.55;;;22.30;91.30;;;;;;5042902;28;20029;-74
2022/06/19 00:15:00;;;;;;;1.02;0.10;;;22.40;91.50;;;;;;5044661;28;20646;-74
2022/06/19 00:17:28;;;;;;;0.60;0.40;;;22.50;91.10;;;;;;5041381;28;20468;-74
2022/06/19 00:19:55;;;;;;;2.35;0.40;;;22.60;90.60;;;;;;5051045;28;20055;-73
2022/06/19 00:22:22;;;;;;;0.43;0.20;;;23.00;90.00;;;;;;5041673;28;20025;-72
2022/06/19 00:24:50;;;;;;;0.35;0.20;;;22.90;90.60;;;;;;5037645;28;20061;-72
2022/06/19 00:27:18;;;;;;;2.47;0.30;;;23.00;90.70;;;;;;5043212;28;20382;-74
2022/06/19 00:29:45;;;;;;;1.05;0.30;;;23.30;90.50;;;;;;5030582;28;20421;-74
2022/06/19 00:32:13;;;;;;;0.73;0.30;;;23.60;89.80;;;;;;5034857;28;20032;-75
2022/06/19 00:34:41;;;;;;;1.13;0.20;;;23.80;89.90;;;;;;5028672;28;20532;-75
2022/06/19 00:37:08;;;;;;;0.95;0.25;;;24.10;88.90;;;;;;5041316;28;20029;-75
2022/06/19 00:39:39;;;;;;;0.85;0.30;;;24.30;87.80;;;;;;5047361;28;20036;-74
2022/06/19 00:42:12;;;;;;;2.65;0.20;;;24.10;88.10;;;;;;5048219;28;20056;-76
2022/06/19 00:44:40;;;;;;;0.30;0.20;;;24.50;88.00;;;;;;5048958;28;20395;-74
2022/06/19 00:47:17;;;;;;;0.73;0.15;;;24.80;87.30;;;;;;5039242;28;20029;-73
2022/06/19 00:49:48;;;;;;;1.13;0.32;;;24.70;86.50;;;;;;5040826;28;20029;-74
2022/06/19 00:52:42;;;;;;;2.35;0.25;;;25.10;87.50;;;;;;5036040;28;20117;-72
2022/06/19 00:55:18;;;;;;;0.60;0.50;;;25.00;86.00;;;;;;5045117;28;20043;-73
2022/06/19 00:57:53;;;;;;;1.80;0.60;;;25.50;85.80;;;;;;5026424;28;20561;-72
2022/06/19 01:00:26;;;;;;;0.95;0.40;;;25.40;84.90;;;;;;5029005;28;20108;-72
2022/06/19 01:03:00;;;;;;;1.23;0.20;;;25.70;85.20;;;;;;5028047;28;20582;-70
2022/06/19 01:05:29;;;;;;;1.08;0.30;;;25.80;84.50;;;;;;5028878;28;20087;-71
2022/06/19 01:08:02;;;;;;;0.45;0.20;;;25.90;84.50;;;;;;5029980;28;20043;-71
2022/06/19 01:10:31;;;;;;;1.33;0.40;;;26.10;83.60;;;;;;5036692;28;20115;-70
2022/06/19 01:12:59;;;;;;;1.67;0.25;;;26.10;82.90;;;;;;5033420;28;20095;-70
2022/06/19 01:15:27;;;;;;;1.67;0.40;;;26.10;83.60;;;;;;5054449;28;20063;-70
2022/06/19 01:18:01;;;;;;;1.58;0.50;;;26.30;83.60;;;;;;5053118;28;20091;-72
2022/06/19 01:20:30;;;;;;;1.30;0.35;;;26.60;83.00;;;;;;5036370;28;20044;-71
2022/06/19 01:23:17;;;;;;;1.75;0.50;;;26.70;82.70;;;;;;5031758;28;20022;-72
2022/06/19 01:25:45;;;;;;;1.48;0.28;;;26.70;81.70;;;;;;5032827;28;20795;-72
2022/06/19 01:31:20;;;;;;;1.00;0.35;;;26.80;82.10;;;;;;5033668;28;20047;-72
2022/06/19 01:33:56;;;;;;;1.17;0.25;;;27.00;82.80;;;;;;5028967;28;20040;-72
2022/06/19 01:36:25;;;;;;;1.08;0.65;;;27.40;81.70;;;;;;5028420;28;20105;-72
2022/06/19 01:38:54;;;;;;;0.60;0.25;;;27.50;82.20;;;;;;5056995;28;20028;-72
2022/06/19 01:41:31;;;;;;;1.00;0.22;;;27.50;80.30;;;;;;5033383;28;20039;-72
2022/06/19 01:43:59;;;;;;;2.33;0.65;;;27.70;81.40;;;;;;5062659;28;20489;-71
2022/06/19 01:46:29;;;;;;;1.55;0.30;;;28.00;80.60;;;;;;5047918;28;20145;-72
2022/06/19 01:48:57;;;;;;;1.52;0.73;;;28.20;78.90;;;;;;5035958;28;20041;-72
2022/06/19 01:51:25;;;;;;;3.95;0.50;;;28.10;79.00;;;;;;5045782;28;20124;-72
2022/06/19 01:53:58;;;;;;;0.70;0.40;;;27.90;80.10;;;;;;5057201;28;20563;-72
2022/06/19 01:56:26;;;;;;;1.60;0.50;;;28.10;79.40;;;;;;5047736;28;20406;-72
2022/06/19 01:58:58;;;;;;;3.35;0.60;;;28.00;79.00;;;;;;5048811;28;20025;-71
2022/06/19 02:01:26;;;;;;;0.95;0.22;;;27.90;80.70;;;;;;5048744;28;20127;-72
2022/06/19 02:03:57;;;;;;;1.30;0.47;;;28.00;79.60;;;;;;5055589;28;20435;-73
2022/06/19 02:06:31;;;;;;;0.50;0.35;;;28.00;80.20;;;;;;5049513;28;20108;-71
2022/06/19 02:09:02;;;;;;;0.60;0.40;;;27.90;79.90;;;;;;5049626;28;20580;-71
2022/06/19 02:11:33;;;;;;;0.98;0.47;;;28.00;79.80;;;;;;5037242;28;20124;-72
2022/06/19 02:14:03;;;;;;;0.95;0.38;;;27.70;79.40;;;;;;5066287;28;20078;-71
2022/06/19 02:16:31;;;;;;;2.08;0.55;;;27.90;79.80;;;;;;5034830;28;20082;-71
2022/06/19 02:18:58;;;;;;;0.75;0.40;;;28.00;79.50;;;;;;5052421;28;20387;-70
2022/06/19 02:21:38;;;;;;;0.63;0.30;;;28.10;78.90;;;;;;5041372;28;20454;-70
2022/06/19 02:24:08;;;;;;;0.75;0.30;;;28.10;78.80;;;;;;5032285;28;20030;-73
2022/06/19 02:26:39;;;;;;;1.80;0.52;;;28.20;79.60;;;;;;5041241;28;20025;-71
2022/06/19 02:29:10;;;;;;;0.70;0.30;;;28.10;79.30;;;;;;5034977;28;20126;-71
2022/06/19 02:31:44;;;;;;;2.83;0.40;;;28.20;80.40;;;;;;5045323;28;20028;-69
2022/06/19 02:34:39;;;;;;;1.23;0.32;;;28.40;80.00;;;;;;5051440;28;20037;-71
2022/06/19 02:37:17;;;;;;;0.40;0.30;;;28.30;79.30;;;;;;5033209;28;20108;-69
2022/06/19 02:39:53;;;;;;;0.70;0.30;;;28.20;78.30;;;;;;5032994;28;20035;-72
2022/06/19 02:42:40;;;;;;;0.65;0.43;;;27.80;79.60;;;;;;5034547;28;20177;-70
2022/06/19 02:45:22;;;;;;;0.35;0.20;;;27.60;78.90;;;;;;5031640;28;20053;-71
2022/06/19 02:47:51;;;;;;;0.60;0.28;;;27.40;81.00;;;;;;5033404;28;20029;-72
2022/06/19 02:50:42;;;;;;;1.35;0.38;;;27.30;81.30;;;;;;5042065;28;20021;-73
2022/06/19 02:53:09;;;;;;;2.90;0.40;;;26.30;80.50;;;;;;5049772;28;20142;-72
2022/06/19 02:55:37;;;;;;;3.35;0.50;;;24.90;84.80;;;;;;5063760;28;20036;-73
2022/06/19 02:58:04;;;;;;;1.98;0.43;;;24.00;85.90;;;;;;5049344;28;20106;-73
2022/06/19 03:00:32;;;;;;;1.95;0.70;;;24.20;85.90;;;;;;5051972;28;20038;-72
2022/06/19 03:03:08;;;;;;;2.53;0.40;;;24.00;85.90;;;;;;5045501;28;20032;-72
2022/06/19 03:05:35;;;;;;;1.25;0.25;;;24.20;85.40;;;;;;5042963;28;20102;-72
2022/06/19 03:08:03;;;;;;;0.47;0.30;;;24.60;84.30;;;;;;5047834;28;20127;-71
2022/06/19 03:10:30;;;;;;;2.03;0.40;;;24.50;84.40;;;;;;5060543;28;20028;-71
2022/06/19 03:12:59;;;;;;;1.08;0.30;;;23.60;85.90;;;;;;5055114;28;20040;-71
2022/06/19 03:15:27;;;;;;;1.70;0.40;;;22.90;87.90;;;;;;5032278;28;20033;-72
2022/06/19 03:17:54;;;;;;;1.30;0.32;;;22.30;89.10;;;;;;5034752;28;20044;-70
2022/06/19 03:20:24;;;;;;;0.98;0.20;;;21.90;90.30;;;;;;5031874;28;20038;-72
2022/06/19 03:22:52;;;;;;;0.40;0.40;;;21.70;90.80;;;;;;5036793;28;20059;-71
2022/06/19 03:25:20;;;;;;;4.47;0.40;;;21.70;90.90;;;;;;5031047;28;20037;-72
2022/06/19 03:27:48;;;;;;;0.40;0.30;;;21.60;90.70;;;;;;5039827;28;20051;-70
2022/06/19 03:30:17;;;;;;;3.75;0.60;;;21.40;91.40;;;;;;5045536;28;20116;-71
2022/06/19 03:32:45;;;;;;;2.78;0.47;;;21.20;91.10;;;;;;5044965;28;20031;-71
2022/06/19 03:35:13;;;;;;;1.15;0.77;;;21.20;91.30;;;;;;5040455;28;20057;-72
2022/06/19 03:37:40;;;;;;;1.85;0.82;;;21.00;91.90;;;;;;5031227;28;20026;-72
2022/06/19 03:40:09;;;;;;;1.95;0.65;;;20.80;92.20;;;;;;5043805;28;20154;-71
2022/06/19 03:42:37;;;;;;;4.90;2.00;;;20.60;92.30;;;;;;5055712;28;20513;-71
2022/06/19 03:45:05;;;;;;;1.95;0.80;;;20.40;92.70;;;;;;5050199;28;20032;-72
2022/06/19 03:47:32;;;;;;;1.95;0.80;;;20.30;93.00;;;;;;5046139;28;20021;-72
2022/06/19 03:50:01;;;;;;;1.80;0.60;;;20.20;93.10;;;;;;5060359;28;20051;-72
2022/06/19 03:52:29;;;;;;;2.47;0.40;;;20.10;93.20;;;;;;5041956;28;20051;-69
2022/06/19 03:54:56;;;;;;;2.35;0.60;;;20.00;93.30;;;;;;5031088;28;20110;-71
2022/06/19 03:57:24;;;;;;;2.38;0.50;;;19.90;93.40;;;;;;5039361;28;20136;-72
2022/06/19 03:59:51;;;;;;;1.58;0.20;;;20.00;93.40;;;;;;5053477;28;20447;-71
2022/06/19 04:02:19;;;;;;;1.25;0.65;;;20.10;93.30;;;;;;5039373;28;20071;-71
2022/06/19 04:04:47;;;;;;;1.40;0.30;;;20.10;93.40;;;;;;5050970;28;20108;-69
2022/06/19 04:07:16;;;;;;;0.50;0.30;;;20.00;92.70;;;;;;5034536;28;20030;-73
2022/06/19 04:09:44;;;;;;;2.55;0.30;;;19.90;92.30;;;;;;5052046;28;20439;-73
2022/06/19 04:12:12;;;;;;;2.75;1.75;;;19.80;92.40;;;;;;5043773;28;20029;-70
2022/06/19 04:14:40;;;;;;;1.45;0.65;;;19.70;92.60;;;;;;5039545;28;20123;-70
2022/06/19 04:17:08;;;;;;;0.90;0.40;;;19.70;92.70;;;;;;5041319;28;20018;-71
2022/06/19 04:19:36;;;;;;;1.52;0.60;;;19.80;92.60;;;;;;5030758;28;20023;-70
2022/06/19 04:22:04;;;;;;;2.13;0.50;;;19.70;93.00;;;;;;5042176;28;20037;-72
2022/06/19 04:24:31;;;;;;;1.10;0.47;;;19.60;93.40;;;;;;5048899;28;20056;-71
2022/06/19 04:27:03;;;;;;;0.75;0.50;;;19.50;93.70;;;;;;5046758;28;20033;-70
2022/06/19 04:29:30;;;;;;;1.95;0.77;;;19.40;93.90;;;;;;5050483;28;20371;-68
2022/06/19 04:31:57;;;;;;;0.95;0.40;;;19.30;93.90;;;;;;5055651;28;20119;-71
2022/06/19 04:34:25;;;;;;;1.38;0.30;;;19.30;94.10;;;;;;5045602;28;20087;-72
2022/06/19 04:36:52;;;;;;;2.67;0.70;;;19.30;94.00;;;;;;5032256;28;20096;-73
2022/06/19 04:39:19;;;;;;;1.20;0.40;;;19.20;94.20;;;;;;5041938;28;20460;-70
2022/06/19 04:41:47;;;;;;;4.80;0.60;;;19.20;93.90;;;;;;5041544;28;20438;-71
2022/06/19 04:44:16;;;;;;;1.25;0.45;;;19.10;93.70;;;;;;5038404;28;20076;-71
2022/06/19 04:46:44;;;;;;;2.00;0.40;;;19.00;93.80;;;;;;5050978;28;20033;-68
2022/06/19 04:49:14;;;;;;;0.32;0.28;;;19.00;93.90;;;;;;5052605;28;20027;-73
2022/06/19 04:51:42;;;;;;;3.40;0.30;;;18.90;94.20;;;;;;5049302;28;20045;-72
2022/06/19 04:54:11;;;;;;;1.80;0.60;;;18.90;94.40;;;;;;5043338;28;20041;-73
2022/06/19 04:56:38;;;;;;;2.97;0.70;;;18.70;94.90;;;;;;5039360;28;20032;-72
2022/06/19 04:59:07;;;;;;;3.25;0.98;;;18.70;95.10;;;;;;5062909;28;20379;-71
2022/06/19 05:01:37;;;;;;;1.95;0.50;;;18.60;95.70;;;;;;5044350;28;20067;-71
2022/06/19 05:04:08;;;;;;;0.82;0.30;;;18.70;95.70;;;;;;5035809;28;20030;-71
2022/06/19 05:06:35;;;;;;;1.25;0.43;;;18.70;96.00;;;;;;5048867;28;20280;-73
2022/06/19 05:09:03;;;;;;;1.15;0.30;;;18.80;95.90;;;;;;5036212;28;20056;-74
2022/06/19 05:11:32;;;;;;;2.85;0.88;;;18.90;95.80;;;;;;5057799;28;20021;-73
2022/06/19 05:14:00;;;;;;;1.73;0.50;;;18.90;96.00;;;;;;5048449;28;20037;-73
2022/06/19 05:16:28;;;;;;;3.05;0.52;;;19.00;95.40;;;;;;5030514;28;20467;-76
2022/06/19 05:18:56;;;;;;;4.43;0.80;;;19.10;95.50;;;;;;5034438;28;20082;-76
2022/06/19 05:21:25;;;;;;;1.42;0.50;;;19.10;95.40;;;;;;5029746;28;20040;-74
2022/06/19 05:23:54;;;;;;;1.90;0.70;;;19.00;95.70;;;;;;5049581;28;20029;-70
2022/06/19 05:26:25;;;;;;;2.85;0.75;;;18.90;95.80;;;;;;5037300;28;20032;-71
2022/06/19 05:28:54;;;;;;;0.90;0.60;;;18.90;96.00;;;;;;5032129;28;20124;-72
2022/06/19 05:31:22;;;;;;;1.13;0.50;;;18.70;96.00;;;;;;5049403;28;20029;-72
2022/06/19 05:33:50;;;;;;;1.90;0.52;;;18.60;96.20;;;;;;5048421;28;20021;-69
2022/06/19 05:36:17;;;;;;;2.67;0.80;;;18.60;96.20;;;;;;5042909;28;20124;-73
2022/06/19 05:38:45;;;;;;;1.25;0.50;;;18.60;96.20;;;;;;5059936;28;20032;-73
2022/06/19 05:41:13;;;;;;;1.83;1.00;;;18.40;96.60;;;;;;5052370;28;20033;-72
2022/06/19 05:43:41;;;;;;;2.28;0.80;;;18.20;96.80;;;;;;5049239;28;20108;-71
2022/06/19 05:46:15;;;;;;;3.13;1.20;;;18.10;96.80;;;;;;5065090;28;20020;-69
2022/06/19 05:48:43;;;;;;;2.00;0.67;;;18.00;96.60;;;;;;5047587;28;20076;-71
2022/06/19 05:51:14;;;;;;;1.65;0.70;;;17.90;96.80;;;;;;5043620;28;20128;-72
2022/06/19 05:53:45;;;;;;;1.33;0.73;;;17.80;97.00;;;;;;5053174;28;20028;-73
2022/06/19 05:56:13;;;;;;;1.73;0.50;;;17.70;96.90;;;;;;5064314;28;20041;-71
2022/06/19 05:58:41;;;;;;;1.50;0.55;;;17.70;96.90;;;;;;5064968;28;20021;-72
2022/06/19 06:01:10;;;;;;;1.13;0.50;;;17.70;97.00;;;;;;5029632;28;20025;-72
2022/06/19 06:03:39;;;;;;;1.95;1.02;;;17.70;96.90;;;;;;5038414;28;20040;-72
2022/06/19 06:06:12;;;;;;;2.47;0.90;;;17.70;97.00;;;;;;5053060;28;20482;-71
2022/06/19 06:08:39;;;;;;;4.13;1.88;;;17.70;97.00;;;;;;5046952;28;20036;-73
2022/06/19 06:11:07;;;;;;;1.13;0.95;;;17.60;97.20;;;;;;5048408;28;20028;-72
2022/06/19 06:13:35;;;;;;;2.63;0.88;;;17.50;97.40;;;;;;5052768;28;20445;-73
2022/06/19 06:16:03;;;;;;;4.05;1.17;;;17.40;97.50;;;;;;5042264;28;20048;-72
2022/06/19 06:18:31;;;;;;;4.22;0.90;;;17.30;97.70;;;;;;5049999;28;20048;-74
2022/06/19 06:21:08;;;;;;;1.50;0.90;;;17.20;97.90;;;;;;5044730;28;20033;-70
2022/06/19 06:23:36;;;;;;;2.30;0.80;;;17.10;98.00;;;;;;5044398;28;20570;-69
2022/06/19 06:26:20;;;;;;;3.92;1.70;;;17.00;98.20;;;;;;5040075;28;20387;-72
2022/06/19 06:28:50;;;;;;;6.45;1.70;;;16.90;98.50;;;;;;5030442;28;20432;-74
2022/06/19 06:31:18;;;;;;;8.40;2.95;;;16.80;98.50;;;;;;5054055;28;20036;-75
2022/06/19 06:33:46;;;;;;;6.15;2.70;;;16.80;98.60;;;;;;5042105;28;20037;-75
2022/06/19 06:36:14;;;;;;;6.07;1.90;;;16.60;98.80;;;;;;5045532;28;20028;-75
2022/06/19 06:38:42;;;;;;;2.55;1.42;;;16.50;99.00;;;;;;5030353;28;20838;-76
2022/06/19 06:41:11;;;;;;;2.50;0.90;;;16.50;99.20;;;;;;5034099;28;20036;-78
2022/06/19 06:43:40;;;;;;;3.08;0.90;;;16.40;99.20;;;;;;5054231;28;20364;-72
2022/06/19 06:46:18;;;;;;;5.25;1.50;;;16.30;99.40;;;;;;5049626;28;20036;-72
2022/06/19 06:48:47;;;;;;;1.10;1.02;;;16.20;99.90;;;;;;5048387;28;20061;-75
2022/06/19 06:51:17;;;;;;;4.97;1.02;;;16.10;99.90;;;;;;5051640;28;20084;-74
2022/06/19 06:53:45;;;;;;;3.90;1.35;;;16.00;99.90;;;;;;5033692;28;20104;-72
2022/06/19 06:56:12;;;;;;;4.35;1.25;;;16.00;99.90;;;;;;5048641;28;20418;-73
2022/06/19 06:58:40;;;;;;;3.53;1.40;;;15.80;99.90;;;;;;5036690;28;20025;-75
2022/06/19 07:01:17;;;;;;;3.17;1.30;;;15.70;99.90;;;;;;5047675;28;20039;-71
2022/06/19 07:03:46;;;;;;;3.28;1.83;;;15.60;99.90;;;;;;5043211;28;20021;-73
2022/06/19 07:06:14;;;;;;;4.93;2.58;;;15.60;99.90;;;;;;5034636;28;20029;-74
2022/06/19 07:08:42;;;;;;;4.60;2.97;;;15.50;99.90;;;;;;5035397;28;20045;-73
2022/06/19 07:11:23;;;;;;;5.10;3.50;;;15.40;99.90;;;;;;5048922;28;20025;-74
2022/06/19 07:13:51;;;;;;;11.15;3.72;;;15.30;99.90;;;;;;5050547;28;20109;-74
2022/06/19 07:16:18;;;;;;;7.45;3.42;;;15.20;99.90;;;;;;5038944;28;20083;-73
2022/06/19 07:18:46;;;;;;;3.78;2.58;;;15.20;99.90;;;;;;5041324;28;20063;-74
2022/06/19 07:21:14;;;;;;;4.22;2.20;;;15.10;99.90;;;;;;5050990;28;20017;-74
2022/06/19 07:23:41;;;;;;;7.05;2.80;;;15.00;99.90;;;;;;5051742;28;20390;-73
2022/06/19 07:26:15;;;;;;;5.07;2.38;;;15.00;99.90;;;;;;5047029;28;20052;-75
2022/06/19 07:28:43;;;;;;;4.57;2.58;;;15.00;99.90;;;;;;5065067;28;20021;-74
2022/06/19 07:31:11;;;;;;;4.78;2.63;;;14.90;99.90;;;;;;5058988;28;20024;-74
2022/06/19 07:33:39;;;;;;;7.53;3.20;;;14.80;99.90;;;;;;5057556;28;20500;-73
2022/06/19 07:36:10;;;;;;;4.70;2.85;;;14.80;99.90;;;;;;5039026;28;20048;-75
2022/06/19 07:38:39;;;;;;;7.35;2.65;;;14.80;99.90;;;;;;5066061;28;20020;-74
2022/06/19 07:41:06;;;;;;;5.10;3.03;;;14.80;99.90;;;;;;5059505;28;20032;-76
2022/06/19 07:43:34;;;;;;;4.78;1.98;;;14.70;99.90;;;;;;5050200;28;20375;-77
2022/06/19 07:46:01;;;;;;;3.72;1.38;;;14.70;99.90;;;;;;5049411;28;20029;-76
2022/06/19 07:51:14;;;;;;;2.92;1.40;;;14.60;99.90;;;;;;5047061;28;20103;-77
2022/06/19 07:53:41;;;;;;;3.92;1.73;;;14.70;99.90;;;;;;5031755;28;20036;-76
2022/06/19 07:56:08;;;;;;;4.05;1.58;;;14.60;99.90;;;;;;5032114;28;20103;-75
2022/06/19 07:58:36;;;;;;;1.55;1.10;;;14.70;99.90;;;;;;5031579;28;20049;-75
2022/06/19 08:01:04;;;;;;;2.80;1.00;;;14.70;99.90;;;;;;5044612;28;20481;-75
2022/06/19 08:03:32;;;;;;;2.75;1.65;;;14.70;99.90;;;;;;5031897;28;20033;-74
2022/06/19 08:05:59;;;;;;;6.95;1.95;;;14.70;99.90;;;;;;5031526;28;20025;-74
2022/06/19 08:08:29;;;;;;;3.63;2.22;;;14.70;99.90;;;;;;5051656;28;20028;-76
2022/06/19 08:10:57;;;;;;;4.22;3.42;;;14.70;99.90;;;;;;5049552;28;20071;-75
2022/06/19 08:13:29;;;;;;;6.97;3.55;;;14.70;99.90;;;;;;5046247;28;20083;-78
2022/06/19 08:16:02;;;;;;;7.15;4.10;;;14.70;99.90;;;;;;5044009;28;20056;-74
2022/06/19 08:18:30;;;;;;;8.55;4.90;;;14.70;99.90;;;;;;5048237;28;20078;-75
2022/06/19 08:20:57;;;;;;;7.47;4.55;;;14.70;99.90;;;;;;5048277;28;20033;-74
2022/06/19 08:23:25;;;;;;;7.05;4.43;;;14.60;99.90;;;;;;5050259;28;20073;-75
2022/06/19 08:25:52;;;;;;;7.30;4.10;;;14.60;99.90;;;;;;5036930;28;20025;-77
2022/06/19 08:28:28;;;;;;;6.10;4.47;;;14.60;99.90;;;;;;5043274;28;20041;-76
2022/06/19 08:30:56;;;;;;;6.45;3.92;;;14.70;99.90;;;;;;5045905;28;20039;-75
2022/06/19 08:33:27;;;;;;;6.63;4.57;;;14.70;99.90;;;;;;5038030;28;20030;-76
2022/06/19 08:36:00;;;;;;;7.72;4.70;;;14.70;99.90;;;;;;5034059;28;20076;-74
2022/06/19 08:38:36;;;;;;;5.70;4.22;;;14.80;99.90;;;;;;5048840;28;20030;-74
2022/06/19 08:41:15;;;;;;;9.80;4.65;;;14.80;99.90;;;;;;5030801;28;20040;-74
2022/06/19 08:44:16;;;;;;;8.73;4.47;;;14.80;99.90;;;;;;5037988;28;20419;-75
2022/06/19 08:47:12;;;;;;;7.63;4.38;;;14.80;99.90;;;;;;5049870;28;20090;-72
2022/06/19 08:49:54;;;;;;;9.30;5.97;;;14.80;99.90;;;;;;5052440;28;20053;-75
2022/06/19 08:52:44;;;;;;;11.75;7.35;;;14.80;99.90;;;;;;5034871;28;20049;-75
2022/06/19 08:55:29;;;;;;;15.70;8.38;;;14.80;99.90;;;;;;5032490;28;20037;-76
2022/06/19 08:57:56;;;;;;;9.13;5.57;;;14.80;99.90;;;;;;5041539;28;20022;-76
2022/06/19 09:00:38;;;;;;;12.18;5.93;;;14.60;99.90;;;;;;5030024;28;20053;-76
2022/06/19 09:06:53;;;;;;;8.63;5.68;;;14.40;99.90;;;;;;5060565;28;20408;-78
2022/06/19 09:09:53;;;;;;;8.32;4.82;;;14.30;99.90;;;;;;5036453;28;20085;-75
2022/06/19 09:12:32;;;;;;;8.57;5.80;;;14.30;99.90;;;;;;4976297;28;20444;-75
2022/06/19 09:15:08;;;;;;;9.32;5.38;;;14.30;99.90;;;;;;5037769;28;20025;-75
2022/06/19 09:18:10;;;;;;;9.07;5.07;;;14.30;99.90;;;;;;5047463;28;20044;-78
2022/06/19 09:20:43;;;;;;;6.82;4.72;;;14.30;99.90;;;;;;4966845;28;20393;-76
2022/06/19 09:23:31;;;;;;;6.53;4.38;;;14.30;99.90;;;;;;5027450;28;20041;-76
2022/06/19 09:26:18;;;;;;;9.38;5.15;;;14.30;99.90;;;;;;5041751;28;20094;-75
2022/06/19 09:29:07;;;;;;;9.27;5.35;;;14.30;99.90;;;;;;5030876;28;20034;-76
2022/06/19 09:31:49;;;;;;;5.00;3.35;;;14.30;99.90;;;;;;5032433;28;20017;-78
2022/06/19 09:35:11;;;;;;;7.45;3.08;;;14.20;99.90;;;;;;5039423;28;20484;-78
2022/06/19 09:37:46;;;;;;;5.53;2.55;;;14.30;99.90;;;;;;5015382;28;20144;-76
2022/06/19 09:40:31;;;;;;;4.88;3.35;;;14.20;99.90;;;;;;5046590;28;20044;-78
2022/06/19 09:43:23;;;;;;;5.07;2.47;;;14.30;99.90;;;;;;5029909;28;20099;-73
2022/06/19 09:46:05;;;;;;;5.35;2.53;;;14.20;99.90;;;;;;5050612;28;20024;-76
2022/06/19 09:49:12;;;;;;;5.55;1.80;;;14.30;99.90;;;;;;5035261;28;20025;-73
2022/06/19 09:51:56;;;;;;;1.77;1.08;;;14.20;99.90;;;;;;5009607;28;20564;-76
2022/06/19 09:54:36;;;;;;;2.33;1.40;;;14.20;99.90;;;;;;5034357;28;20097;-76
2022/06/19 09:57:21;;;;;;;2.40;0.88;;;14.20;99.90;;;;;;5044873;28;20103;-79
2022/06/19 10:00:04;;;;;;;1.95;1.20;;;14.20;99.90;;;;;;5056566;28;20033;-77
2022/06/19 10:02:53;;;;;;;1.90;1.00;;;14.20;99.90;;;;;;5048964;28;20025;-74
2022/06/19 10:05:20;;;;;;;5.80;1.60;;;14.20;99.90;;;;;;5047894;28;20055;-76
2022/06/19 10:08:13;;;;;;;2.22;1.08;;;14.20;99.90;;;;;;5044249;28;20029;-76
2022/06/19 10:11:02;;;;;;;2.88;1.63;;;14.10;99.90;;;;;;5051773;28;20132;-77
2022/06/19 10:14:01;;;;;;;2.63;1.60;;;14.10;99.90;;;;;;5042221;28;20364;-77
2022/06/19 10:16:46;;;;;;;3.13;1.65;;;14.00;99.90;;;;;;5034962;28;20120;-76
2022/06/19 10:19:24;;;;;;;5.72;2.70;;;13.90;99.90;;;;;;5067356;28;20048;-76
2022/06/19 10:22:14;;;;;;;3.40;1.65;;;13.90;99.90;;;;;;5035289;28;20048;-78
2022/06/19 10:25:05;;;;;;;1.85;1.40;;;13.80;99.90;;;;;;5051142;28;20112;-75
2022/06/19 10:27:55;;;;;;;4.22;1.20;;;13.70;99.90;;;;;;5034648;28;20341;-74
2022/06/19 10:30:36;;;;;;;4.38;1.77;;;13.60;99.90;;;;;;5049458;28;20029;-78
2022/06/19 10:33:09;;;;;;;2.80;1.83;;;13.60;99.90;;;;;;5037950;28;20055;-76
2022/06/19 10:36:31;;;;;;;4.40;2.28;;;13.60;99.90;;;;;;5033252;28;20080;-78
2022/06/19 10:39:14;;;;;;;4.72;2.67;;;13.50;99.90;;;;;;4944834;28;20035;-76
2022/06/19 10:42:28;;;;;;;6.78;2.97;;;13.40;99.90;;;;;;4964033;28;20217;-78
2022/06/19 10:45:14;;;;;;;6.70;3.88;;;13.40;99.90;;;;;;5031777;28;20083;-77
2022/06/19 10:47:47;;;;;;;7.38;3.97;;;13.30;99.90;;;;;;5046730;28;20086;-78
2022/06/19 10:50:36;;;;;;;7.55;5.03;;;13.20;99.90;;;;;;5053119;28;20466;-77
2022/06/19 10:53:21;;;;;;;7.15;5.82;;;13.20;99.90;;;;;;5049968;28;20041;-77
2022/06/19 10:56:16;;;;;;;9.18;5.45;;;13.10;99.90;;;;;;5049230;28;20033;-77
2022/06/19 10:58:45;;;;;;;6.90;4.93;;;13.10;99.90;;;;;;5034907;28;20395;-79
2022/06/19 11:04:08;;;;;;;5.32;3.67;;;13.00;99.90;;;;;;5007378;28;20119;-79
2022/06/19 11:06:53;;;;;;;7.40;5.70;;;13.00;99.90;;;;;;5051939;28;20467;-77
2022/06/19 11:09:30;;;;;;;5.93;4.20;;;13.10;99.90;;;;;;5031986;28;20903;-78
2022/06/19 11:12:05;;;;;;;7.78;5.32;;;13.00;99.90;;;;;;5032558;28;20036;-75
2022/06/19 11:14:38;;;;;;;6.38;4.32;;;13.00;99.90;;;;;;5031875;28;20029;-74
2022/06/19 11:17:12;;;;;;;4.85;3.33;;;13.00;99.90;;;;;;5038847;28;20033;-76
2022/06/19 11:19:49;;;;;;;6.75;3.90;;;13.00;99.90;;;;;;5042070;28;20030;-74
2022/06/19 11:22:23;;;;;;;6.15;3.65;;;12.90;99.90;;;;;;5032917;28;20029;-76
2022/06/19 11:24:51;;;;;;;5.00;4.28;;;12.90;99.90;;;;;;5033414;28;20469;-73
2022/06/19 11:27:21;;;;;;;5.78;2.95;;;12.90;99.90;;;;;;5036822;28;20029;-74
2022/06/19 11:29:52;;;;;;;5.40;2.72;;;12.80;99.90;;;;;;5031715;28;20033;-76
2022/06/19 11:32:22;;;;;;;5.63;3.80;;;12.70;99.90;;;;;;5034543;28;20052;-75
2022/06/19 11:35:08;;;;;;;6.47;3.45;;;12.70;99.90;;;;;;5033410;28;20030;-74
2022/06/19 11:37:54;;;;;;;4.28;2.92;;;12.60;99.90;;;;;;5032751;28;20095;-75
2022/06/19 11:40:45;;;;;;;6.22;4.05;;;12.60;99.90;;;;;;5035077;28;20030;-74
2022/06/19 11:43:31;;;;;;;9.48;3.90;;;12.60;99.90;;;;;;5032225;28;20768;-75
2022/06/19 11:46:03;;;;;;;6.38;3.88;;;12.50;99.90;;;;;;5032022;28;20771;-75
2022/06/19 11:48:30;;;;;;;5.95;4.57;;;12.50;99.90;;;;;;5031633;28;20052;-75
2022/06/19 11:50:58;;;;;;;6.65;3.78;;;12.50;99.90;;;;;;5031325;28;20479;-75
2022/06/19 11:53:41;;;;;;;9.40;3.95;;;12.40;99.90;;;;;;5031658;28;20131;-76
2022/06/19 11:56:36;;;;;;;5.95;4.45;;;12.40;99.90;;;;;;5032092;28;20095;-78
2022/06/19 11:59:22;;;;;;;4.97;3.95;;;12.40;99.90;;;;;;5035538;28;20039;-75
2022/06/19 12:01:50;;;;;;;9.73;4.45;;;12.30;99.90;;;;;;5029755;28;21766;-74
2022/06/19 12:04:40;;;;;;;5.00;3.25;;;12.30;99.90;;;;;;5036537;28;20048;-76
2022/06/19 12:07:28;;;;;;;5.43;3.38;;;12.30;99.90;;;;;;5019835;28;20048;-73
2022/06/19 12:09:59;;;;;;;6.03;3.13;;;12.30;99.90;;;;;;5032084;28;22217;-76
2022/06/19 12:12:29;;;;;;;4.82;2.67;;;12.40;99.90;;;;;;5038306;28;20113;-77
2022/06/19 12:15:13;;;;;;;6.80;2.80;;;12.40;99.90;;;;;;5032996;28;20082;-76
2022/06/19 12:17:45;;;;;;;5.18;2.38;;;12.40;99.90;;;;;;5032387;28;20111;-76
2022/06/19 12:20:12;;;;;;;4.00;3.65;;;12.40;99.90;;;;;;5035174;28;20025;-72
2022/06/19 12:22:46;;;;;;;3.25;2.25;;;12.40;99.90;;;;;;5032344;28;20052;-76
2022/06/19 12:25:25;;;;;;;2.97;2.33;;;12.30;99.90;;;;;;5048301;28;20089;-79
2022/06/19 12:28:14;;;;;;;5.10;2.78;;;12.40;99.90;;;;;;5051569;28;20060;-78
2022/06/19 12:30:56;;;;;;;3.58;2.22;;;12.30;99.90;;;;;;5033079;28;20033;-74
2022/06/19 12:33:28;;;;;;;2.67;2.00;;;12.30;99.90;;;;;;5057526;28;20020;-78
2022/06/19 12:35:56;;;;;;;4.13;2.08;;;12.30;99.90;;;;;;5052049;28;20071;-75
2022/06/19 12:38:25;;;;;;;4.53;2.70;;;12.30;99.90;;;;;;5035580;28;20029;-76
2022/06/19 12:40:58;;;;;;;3.90;2.40;;;12.30;99.90;;;;;;5029616;28;20029;-76
2022/06/19 12:43:35;;;;;;;5.85;2.28;;;12.30;99.90;;;;;;5029591;28;20036;-74
2022/06/19 12:46:09;;;;;;;3.40;2.00;;;12.30;99.90;;;;;;5031335;28;20107;-77
2022/06/19 12:48:47;;;;;;;3.47;1.92;;;12.20;99.90;;;;;;5038730;28;20112;-76
2022/06/19 12:51:36;;;;;;;3.15;2.40;;;12.20;99.90;;;;;;5036932;28;20607;-77
2022/06/19 12:54:23;;;;;;;4.35;2.33;;;12.10;99.90;;;;;;5048946;28;20407;-77
2022/06/19 12:57:05;;;;;;;4.22;1.90;;;12.10;99.90;;;;;;5048757;28;20099;-74
2022/06/19 12:59:50;;;;;;;4.50;2.00;;;12.10;99.90;;;;;;5049843;28;20483;-76
2022/06/19 13:02:24;;;;;;;3.33;1.83;;;12.10;99.90;;;;;;5046724;28;20399;-76
2022/06/19 13:04:58;;;;;;;3.97;2.03;;;12.10;99.90;;;;;;5051955;28;20024;-76
2022/06/19 13:07:47;;;;;;;3.33;1.92;;;12.10;99.90;;;;;;5053861;28;20385;-77
2022/06/19 13:10:46;;;;;;;2.47;2.10;;;12.10;99.90;;;;;;5043623;28;20033;-73
2022/06/19 13:13:29;;;;;;;3.17;1.90;;;12.10;99.90;;;;;;5052809;28;20024;-75
2022/06/19 13:16:42;;;;;;;3.03;1.60;;;12.00;99.90;;;;;;5051969;28;20037;-77
2022/06/19 13:19:15;;;;;;;6.03;2.22;;;12.00;99.90;;;;;;5050936;28;20112;-78
2022/06/19 13:22:06;;;;;;;2.28;1.65;;;12.10;99.90;;;;;;5058772;28;20036;-78
2022/06/19 13:24:58;;;;;;;3.83;1.83;;;12.10;99.90;;;;;;5047298;28;20059;-78
2022/06/19 13:27:32;;;;;;;2.50;1.70;;;12.10;99.90;;;;;;5036534;28;20131;-77
2022/06/19 13:30:22;;;;;;;3.10;2.13;;;12.20;99.90;;;;;;5061685;28;20034;-74
2022/06/19 13:32:55;;;;;;;3.50;1.90;;;12.20;99.90;;;;;;5063496;28;20423;-76